Time;durP1;ratioP1;P1;durP2;ratioP2;P2;SDS_P1;SDS_P2;PMS_P1;PMS_P2;Temp;Humidity;BMP_temperature;BMP_pressure;BME280_temperature;BME280_humidity;BME280_pressure;Samples;Min_cycle;Max_cycle;Signal;HPM_P1;HPM_P2
2023/02/20 00:02:05;;;;;;;40.85;17.25;;;;;;;9.20;100.00;97712.00;5118412;27;20027;-79
2023/02/20 00:04:30;;;;;;;35.90;16.38;;;;;;;9.09;100.00;97698.41;5106796;27;20030;-79
2023/02/20 00:06:56;;;;;;;33.67;15.55;;;;;;;9.15;100.00;97702.53;5126771;27;20046;-79
2023/02/20 00:09:21;;;;;;;46.25;17.23;;;;;;;9.10;100.00;97694.78;5166109;27;20019;-79
2023/02/20 00:11:47;;;;;;;31.77;14.82;;;;;;;9.00;100.00;97682.88;5106307;27;20038;-79
2023/02/20 00:14:12;;;;;;;31.15;13.15;;;;;;;9.05;100.00;97686.16;5105828;27;20031;-78
2023/02/20 00:16:38;;;;;;;24.42;11.95;;;;;;;9.11;100.00;97696.50;5109418;27;20486;-78
2023/02/20 00:19:04;;;;;;;21.65;10.82;;;;;;;9.14;100.00;97690.13;5101025;27;20027;-79
2023/02/20 00:21:30;;;;;;;28.40;12.50;;;;;;;9.14;100.00;97701.66;5111927;27;20047;-79
2023/02/20 00:23:55;;;;;;;33.08;14.25;;;;;;;8.99;100.00;97706.97;5100682;27;20050;-79
2023/02/20 00:26:21;;;;;;;33.88;14.70;;;;;;;8.76;100.00;97712.66;5118018;27;20111;-79
2023/02/20 00:28:46;;;;;;;33.50;14.88;;;;;;;8.64;100.00;97722.16;5118573;27;20046;-80
2023/02/20 00:31:14;;;;;;;26.77;12.75;;;;;;;8.40;100.00;97718.09;5117853;27;20035;-79
2023/02/20 00:33:40;;;;;;;33.65;12.93;;;;;;;8.26;100.00;97733.84;5108908;27;20520;-79
2023/02/20 00:36:06;;;;;;;25.13;11.98;;;;;;;8.05;100.00;97728.66;5117564;27;20031;-79
2023/02/20 00:38:31;;;;;;;26.80;11.40;;;;;;;7.88;100.00;97731.25;5134787;27;20394;-79
2023/02/20 00:40:57;;;;;;;24.40;10.95;;;;;;;7.78;100.00;97726.47;5117270;27;20027;-80
2023/02/20 00:43:22;;;;;;;23.45;11.23;;;;;;;7.75;100.00;97724.81;5103325;27;20486;-80
2023/02/20 00:45:48;;;;;;;24.55;10.68;;;;;;;7.74;100.00;97732.88;5100444;27;20027;-80
2023/02/20 00:48:13;;;;;;;24.70;11.75;;;;;;;7.75;100.00;97726.63;5110118;27;20023;-80
2023/02/20 00:50:39;;;;;;;38.92;14.48;;;;;;;7.61;100.00;97720.13;5111651;27;20034;-80
2023/02/20 00:53:04;;;;;;;27.67;12.85;;;;;;;7.55;100.00;97720.44;5099294;27;20390;-80
2023/02/20 00:55:30;;;;;;;36.13;14.00;;;;;;;7.54;100.00;97747.97;5099279;27;20034;-80
2023/02/20 00:57:55;;;;;;;34.35;13.13;;;;;;;7.34;100.00;97734.75;5116164;27;20026;-80
2023/02/20 01:00:25;;;;;;;27.50;11.98;;;;;;;7.48;100.00;97736.75;5109843;27;20023;-80
2023/02/20 01:02:50;;;;;;;25.42;12.07;;;;;;;7.60;100.00;97738.81;5107488;27;20030;-80
2023/02/20 01:05:16;;;;;;;29.65;13.20;;;;;;;7.61;100.00;97729.91;5098338;27;20019;-80
2023/02/20 01:07:41;;;;;;;25.38;11.70;;;;;;;7.58;100.00;97730.06;5115001;27;20450;-80
2023/02/20 01:10:08;;;;;;;31.40;12.82;;;;;;;7.59;100.00;97737.13;5115858;27;20043;-80
2023/02/20 01:12:33;;;;;;;30.98;13.00;;;;;;;7.54;100.00;97726.69;5150284;27;20015;-80
2023/02/20 01:14:59;;;;;;;30.10;13.48;;;;;;;7.59;100.00;97729.13;5115960;27;20553;-80
2023/02/20 01:17:24;;;;;;;42.08;15.32;;;;;;;7.61;100.00;97727.25;5115922;27;20025;-80
2023/02/20 01:19:50;;;;;;;45.45;16.73;;;;;;;7.55;100.00;97722.22;5115864;27;20047;-80
2023/02/20 01:22:15;;;;;;;38.28;14.48;;;;;;;7.61;100.00;97729.91;5133272;27;20031;-80
2023/02/20 01:24:42;;;;;;;39.25;16.17;;;;;;;7.73;100.00;97736.44;5114165;27;20077;-79
2023/02/20 01:27:08;;;;;;;30.98;13.45;;;;;;;7.68;100.00;97733.16;5106178;27;20019;-79
2023/02/20 01:29:33;;;;;;;29.02;13.90;;;;;;;7.57;100.00;97731.00;5115552;27;20543;-79
2023/02/20 01:31:59;;;;;;;32.67;14.77;;;;;;;7.55;100.00;97740.84;5115679;27;20023;-79
2023/02/20 01:34:25;;;;;;;34.40;14.13;;;;;;;7.53;100.00;97742.72;5149702;27;20063;-79
2023/02/20 01:36:53;;;;;;;29.52;13.48;;;;;;;7.48;100.00;97736.75;5115780;27;20027;-79
2023/02/20 01:39:20;;;;;;;31.58;13.95;;;;;;;7.44;100.00;97736.06;5128798;27;20019;-79
2023/02/20 01:41:48;;;;;;;26.98;14.05;;;;;;;7.49;100.00;97749.13;5132252;27;20031;-80
2023/02/20 01:44:22;;;;;;;35.67;15.02;;;;;;;7.50;100.00;97740.22;5098362;27;20487;-79
2023/02/20 01:46:50;;;;;;;31.33;13.23;;;;;;;7.51;100.00;97731.28;5096945;27;20049;-80
2023/02/20 01:49:20;;;;;;;32.45;13.18;;;;;;;7.44;100.00;97719.22;5115253;27;20139;-79
2023/02/20 01:51:49;;;;;;;26.27;12.48;;;;;;;7.37;100.00;97734.59;5149201;27;20066;-80
2023/02/20 01:54:18;;;;;;;29.83;15.32;;;;;;;7.38;100.00;97741.63;5115232;27;20083;-79
2023/02/20 01:56:45;;;;;;;36.47;15.18;;;;;;;7.34;100.00;97733.88;5114786;27;20034;-79
2023/02/20 01:59:11;;;;;;;31.55;14.25;;;;;;;7.28;100.00;97728.84;5138072;27;20447;-79
2023/02/20 02:01:37;;;;;;;31.65;15.10;;;;;;;7.28;100.00;97735.03;5103542;27;20114;-79
2023/02/20 02:04:05;;;;;;;32.05;15.68;;;;;;;7.29;100.00;97747.38;5105930;27;20108;-79
2023/02/20 02:06:33;;;;;;;36.40;16.35;;;;;;;7.22;100.00;97755.72;5125438;27;20034;-79
2023/02/20 02:09:02;;;;;;;39.70;19.23;;;;;;;7.26;100.00;97773.28;5114875;27;20027;-78
2023/02/20 02:11:28;;;;;;;45.97;19.60;;;;;;;7.22;100.00;97792.97;5115049;27;20414;-79
2023/02/20 02:13:53;;;;;;;45.28;18.00;;;;;;;7.22;100.00;97779.66;5098215;27;20116;-79
2023/02/20 02:16:30;;;;;;;32.85;16.17;;;;;;;7.39;100.00;97793.06;5131244;27;20038;-80
2023/02/20 02:19:04;;;;;;;39.53;16.35;;;;;;;7.52;100.00;97789.78;5098975;27;20451;-79
2023/02/20 02:21:51;;;;;;;32.88;15.85;;;;;;;7.59;100.00;97785.03;5114540;27;20039;-80
2023/02/20 02:24:35;;;;;;;40.95;16.80;;;;;;;7.55;100.00;97780.78;5121971;27;20023;-79
2023/02/20 02:27:25;;;;;;;33.28;15.35;;;;;;;7.54;100.00;97787.03;5133027;27;20084;-79
2023/02/20 02:30:00;;;;;;;27.52;12.40;;;;;;;7.35;100.00;97778.19;5114502;27;20490;-80
2023/02/20 02:32:25;;;;;;;28.73;13.63;;;;;;;7.27;100.00;97775.84;5114389;27;20057;-79
2023/02/20 02:35:19;;;;;;;28.13;13.20;;;;;;;7.23;100.00;97765.44;5114422;27;20039;-79
2023/02/20 02:37:47;;;;;;;34.95;14.13;;;;;;;7.09;100.00;97774.88;5114358;27;20510;-79
2023/02/20 02:40:31;;;;;;;22.75;11.90;;;;;;;7.12;100.00;97778.34;5120557;27;20023;-79
2023/02/20 02:43:08;;;;;;;26.55;13.65;;;;;;;7.01;100.00;97782.31;5118965;27;20065;-79
2023/02/20 02:46:02;;;;;;;30.02;13.77;;;;;;;6.88;100.00;97799.75;5132605;27;20383;-79
2023/02/20 02:48:54;;;;;;;28.13;14.25;;;;;;;6.86;100.00;97806.91;5109251;27;20039;-79
2023/02/20 02:51:24;;;;;;;27.15;14.48;;;;;;;6.79;100.00;97805.47;5090635;27;20035;-79
2023/02/20 02:54:10;;;;;;;28.65;14.07;;;;;;;6.73;100.00;97811.06;5114234;27;20035;-79
2023/02/20 02:56:46;;;;;;;28.00;12.93;;;;;;;6.64;100.00;97795.50;5105990;27;20115;-79
2023/02/20 02:59:16;;;;;;;31.88;13.63;;;;;;;6.55;100.00;97810.00;5143051;27;20395;-80
2023/02/20 03:01:45;;;;;;;30.73;13.60;;;;;;;6.50;100.00;97800.50;5109496;27;20038;-79
2023/02/20 03:04:12;;;;;;;30.50;13.48;;;;;;;6.48;100.00;97803.25;5113714;27;20019;-79
2023/02/20 03:06:40;;;;;;;28.85;13.93;;;;;;;6.58;100.00;97819.69;5148210;27;20031;-79
2023/02/20 03:09:20;;;;;;;34.13;15.40;;;;;;;6.50;100.00;97824.44;5135135;27;20485;-79
2023/02/20 03:11:45;;;;;;;27.10;12.85;;;;;;;6.64;100.00;97824.75;5109709;27;20502;-80
2023/02/20 03:17:25;;;;;;;28.02;13.68;;;;;;;6.69;100.00;97843.13;5116791;27;20524;-79
2023/02/20 03:19:52;;;;;;;37.50;14.95;;;;;;;6.69;100.00;97836.03;5101272;27;20051;-80
2023/02/20 03:22:24;;;;;;;31.42;15.00;;;;;;;6.74;100.00;97841.13;5113344;27;20027;-79
2023/02/20 03:24:54;;;;;;;30.75;15.50;;;;;;;6.73;100.00;97829.66;5126289;27;20038;-79
2023/02/20 03:27:38;;;;;;;29.50;14.07;;;;;;;6.77;100.00;97833.91;5105029;27;20034;-79
2023/02/20 03:30:08;;;;;;;38.78;16.35;;;;;;;6.73;100.00;97819.03;5107148;27;20026;-79
2023/02/20 03:43:39;;;;;;;27.98;13.90;;;;;;;6.63;100.00;97803.53;5117137;28;20046;-79
2023/02/20 03:46:10;;;;;;;29.80;13.65;;;;;;;6.70;100.00;97808.53;5096266;28;20478;-79
2023/02/20 03:48:45;;;;;;;23.65;9.98;;;;;;;6.73;100.00;97803.09;5103769;28;20035;-79
2023/02/20 03:51:11;;;;;;;24.65;9.63;;;;;;;6.84;100.00;97795.50;5113359;28;20038;-79
2023/02/20 03:53:39;;;;;;;26.73;11.55;;;;;;;6.89;100.00;97798.81;5112531;28;20411;-80
2023/02/20 03:56:08;;;;;;;19.25;7.97;;;;;;;6.87;100.00;97798.03;5113259;28;20023;-79
2023/02/20 03:58:36;;;;;;;17.48;7.80;;;;;;;6.82;100.00;97786.75;5103498;28;20493;-78
2023/02/20 04:01:02;;;;;;;15.93;8.43;;;;;;;6.82;100.00;97780.56;5113152;28;20022;-78
2023/02/20 04:03:31;;;;;;;24.90;9.75;;;;;;;6.71;100.00;97769.50;5104689;28;20019;-79
2023/02/20 04:05:58;;;;;;;21.98;10.07;;;;;;;6.51;100.00;97778.34;5147737;27;20409;-79
2023/02/20 04:08:38;;;;;;;22.95;10.60;;;;;;;6.37;100.00;97775.38;5113055;28;21372;-79
2023/02/20 04:11:12;;;;;;;26.83;9.90;;;;;;;6.33;100.00;97798.56;5102512;28;20134;-79
2023/02/20 04:13:38;;;;;;;20.63;10.05;;;;;;;6.07;100.00;97814.69;5102790;27;20027;-78
2023/02/20 04:16:04;;;;;;;22.45;10.45;;;;;;;6.01;100.00;97825.53;5119696;28;20532;-80
2023/02/20 04:18:31;;;;;;;29.65;12.55;;;;;;;5.86;100.00;97832.31;5118567;27;20106;-80
2023/02/20 04:20:58;;;;;;;31.40;13.70;;;;;;;6.04;100.00;97835.19;5104077;28;20048;-80
2023/02/20 04:23:25;;;;;;;31.08;13.77;;;;;;;6.08;100.00;97842.09;5126131;27;20118;-80
2023/02/20 04:25:55;;;;;;;28.98;13.95;;;;;;;6.00;100.00;97822.03;5147078;27;20023;-79
2023/02/20 04:28:21;;;;;;;28.65;13.88;;;;;;;6.16;100.00;97840.00;5140154;27;20064;-79
2023/02/20 04:30:47;;;;;;;31.83;14.90;;;;;;;6.21;100.00;97828.28;5095787;28;20087;-79
2023/02/20 04:33:14;;;;;;;30.30;16.50;;;;;;;6.30;100.00;97824.38;5112935;28;20122;-79
2023/02/20 04:35:40;;;;;;;28.92;14.43;;;;;;;6.42;100.00;97799.97;5113167;28;20034;-78
2023/02/20 04:38:06;;;;;;;25.65;12.57;;;;;;;6.49;100.00;97801.47;5101675;28;20483;-79
2023/02/20 04:40:31;;;;;;;49.63;22.63;;;;;;;6.51;100.00;97796.94;5096322;27;20019;-79
2023/02/20 04:42:57;;;;;;;41.83;19.30;;;;;;;6.51;100.00;97795.16;5105200;27;20387;-80
2023/02/20 04:45:23;;;;;;;55.30;21.23;;;;;;;6.58;100.00;97787.78;5116354;27;20031;-79
2023/02/20 04:47:48;;;;;;;41.53;18.38;;;;;;;6.58;100.00;97809.06;5113670;27;20121;-82
2023/02/20 04:50:20;;;;;;;30.00;12.85;;;;;;;6.41;100.00;97816.84;5108138;27;20057;-78
2023/02/20 04:52:45;;;;;;;34.13;11.97;;;;;;;6.31;100.00;97812.81;5116308;27;20118;-78
2023/02/20 04:55:11;;;;;;;21.90;10.02;;;;;;;6.26;100.00;97805.06;5115940;27;20098;-78
2023/02/20 04:57:36;;;;;;;27.70;11.80;;;;;;;6.21;100.00;97833.59;5099462;27;20411;-79
2023/02/20 05:00:03;;;;;;;25.60;12.25;;;;;;;6.19;100.00;97835.44;5098859;27;20052;-78
2023/02/20 05:02:29;;;;;;;30.75;13.48;;;;;;;6.15;100.00;97839.16;5134484;27;20463;-79
2023/02/20 05:04:54;;;;;;;28.70;12.88;;;;;;;6.04;100.00;97843.13;5107092;27;20088;-81
2023/02/20 05:07:20;;;;;;;29.65;13.93;;;;;;;6.05;100.00;97842.22;5104107;27;20099;-80
2023/02/20 05:09:45;;;;;;;32.70;14.90;;;;;;;5.99;100.00;97841.56;5116441;27;20023;-79
2023/02/20 05:12:11;;;;;;;32.55;14.85;;;;;;;6.10;100.00;97840.25;5107031;27;20022;-81
2023/02/20 05:14:36;;;;;;;32.15;14.63;;;;;;;6.12;100.00;97838.41;5129390;27;20388;-80
2023/02/20 05:17:02;;;;;;;47.10;19.85;;;;;;;6.16;100.00;97840.00;5118616;27;20031;-78
2023/02/20 05:19:27;;;;;;;35.75;14.45;;;;;;;6.24;100.00;97848.53;5112851;27;20060;-81
2023/02/20 05:24:37;;;;;;;37.50;14.35;;;;;;;6.26;100.00;97850.22;5123228;27;20120;-79
2023/02/20 05:27:03;;;;;;;38.03;14.00;;;;;;;6.34;100.00;97863.16;5115155;27;20371;-83
2023/02/20 05:29:28;;;;;;;26.70;12.85;;;;;;;6.40;100.00;97870.88;5098894;27;20113;-84
2023/02/20 05:31:54;;;;;;;22.23;11.30;;;;;;;6.45;100.00;97877.78;5123608;27;20432;-84
2023/02/20 05:34:24;;;;;;;22.73;10.98;;;;;;;6.54;100.00;97889.81;5098289;27;20034;-84
2023/02/20 05:36:53;;;;;;;18.70;9.98;;;;;;;6.59;100.00;97892.28;5116157;27;20068;-84
2023/02/20 05:39:19;;;;;;;22.35;10.98;;;;;;;6.70;100.00;97890.06;5102304;27;20111;-83
2023/02/20 05:41:44;;;;;;;18.67;9.90;;;;;;;6.77;100.00;97881.75;5123499;27;20222;-83
2023/02/20 05:44:10;;;;;;;14.27;7.80;;;;;;;7.12;100.00;97882.06;5146480;27;20031;-83
2023/02/20 05:46:40;;;;;;;29.80;11.20;;;;;;;7.25;100.00;97867.31;5098383;27;20027;-83
2023/02/20 05:49:06;;;;;;;20.85;10.82;;;;;;;7.46;100.00;97874.34;5098448;27;20022;-83
2023/02/20 05:51:32;;;;;;;25.52;9.20;;;;;;;7.62;100.00;97878.94;5126459;27;20023;-83
2023/02/20 05:53:57;;;;;;;23.80;11.10;;;;;;;7.78;100.00;97879.09;5131332;27;20164;-85
2023/02/20 05:56:23;;;;;;;19.63;10.27;;;;;;;8.02;100.00;97882.44;5110954;27;20027;-83
2023/02/20 05:58:49;;;;;;;21.08;11.98;;;;;;;8.36;100.00;97884.41;5124205;27;20117;-83
2023/02/20 06:01:22;;;;;;;17.15;7.22;;;;;;;9.38;100.00;97867.69;5112451;27;20045;-84
2023/02/20 06:03:48;;;;;;;20.23;6.90;;;;;;;10.93;88.64;97862.59;5140902;27;20026;-85
2023/02/20 06:06:15;;;;;;;9.50;4.35;;;;;;;12.64;71.80;97835.00;5132163;27;20516;-85
2023/02/20 06:08:40;;;;;;;24.42;7.25;;;;;;;14.06;62.31;97836.75;5099799;27;20031;-85
2023/02/20 06:11:06;;;;;;;20.98;8.15;;;;;;;15.35;55.88;97821.75;5099553;27;20030;-84
2023/02/20 06:13:32;;;;;;;7.57;3.40;;;;;;;16.14;50.30;97793.97;5114429;27;20051;-85
2023/02/20 06:15:57;;;;;;;8.02;5.00;;;;;;;17.44;48.35;97799.28;5097963;27;20053;-85
2023/02/20 06:18:23;;;;;;;8.05;4.40;;;;;;;18.39;45.89;97793.53;5149091;27;20492;-85
2023/02/20 06:20:48;;;;;;;12.43;6.38;;;;;;;18.17;46.83;97798.31;5131696;27;20459;-86
2023/02/20 06:23:14;;;;;;;10.80;5.55;;;;;;;18.03;46.42;97790.53;5131780;27;20467;-86
2023/02/20 06:25:39;;;;;;;18.88;7.05;;;;;;;18.76;44.50;97769.44;5125816;27;20057;-84
2023/02/20 06:28:05;;;;;;;17.38;8.68;;;;;;;17.79;47.06;97778.16;5131804;27;20019;-83
2023/02/20 06:30:30;;;;;;;15.25;7.18;;;;;;;19.00;44.00;97765.47;5131650;27;20088;-83
2023/02/20 06:32:56;;;;;;;14.60;5.93;;;;;;;19.70;42.53;97771.44;5114822;27;20023;-85
2023/02/20 06:35:21;;;;;;;18.33;7.30;;;;;;;19.63;42.34;97764.00;5127941;27;20019;-86
2023/02/20 06:37:47;;;;;;;17.65;7.63;;;;;;;17.79;45.14;97772.75;5117246;27;20371;-85
2023/02/20 06:40:12;;;;;;;16.67;7.70;;;;;;;18.77;44.35;97767.56;5116450;27;20436;-85
2023/02/20 06:42:38;;;;;;;16.83;7.32;;;;;;;17.96;44.73;97762.31;5149348;27;20027;-84
2023/02/20 06:45:04;;;;;;;27.88;9.73;;;;;;;18.62;43.88;97755.41;5148720;27;20023;-85
2023/02/20 06:47:29;;;;;;;10.10;4.68;;;;;;;18.81;42.49;97748.19;5126791;27;20068;-84
2023/02/20 06:49:55;;;;;;;5.75;3.22;;;;;;;19.44;41.17;97754.91;5148464;27;20034;-83
2023/02/20 06:52:20;;;;;;;7.63;4.35;;;;;;;19.18;40.61;97736.63;5128142;27;20061;-85
2023/02/20 06:54:46;;;;;;;13.82;8.07;;;;;;;18.89;40.57;97726.63;5105520;27;20054;-84
2023/02/20 06:57:11;;;;;;;20.30;12.15;;;;;;;17.91;42.04;97716.69;5122737;27;20023;-85
2023/02/20 06:59:40;;;;;;;33.00;17.70;;;;;;;17.58;43.79;97723.22;5121262;27;20038;-81
2023/02/20 07:02:14;;;;;;;34.30;16.73;;;;;;;18.07;43.13;97740.53;5105051;27;20031;-87
2023/02/20 07:04:40;;;;;;;21.42;11.30;;;;;;;18.10;42.07;97733.00;5112103;27;20069;-89
2023/02/20 07:07:06;;;;;;;11.52;7.20;;;;;;;16.57;43.87;97716.59;5106324;27;20474;-84
2023/02/20 07:09:31;;;;;;;7.50;2.97;;;;;;;15.66;45.90;97729.44;5128594;27;20019;-85
2023/02/20 07:11:57;;;;;;;6.38;2.10;;;;;;;15.69;45.74;97739.13;5139035;27;20517;-84
2023/02/20 07:14:22;;;;;;;7.88;4.20;;;;;;;15.69;46.52;97748.06;5098097;27;20103;-86
2023/02/20 07:16:48;;;;;;;4.97;3.10;;;;;;;16.14;44.85;97743.53;5123495;27;20058;-85
2023/02/20 07:19:13;;;;;;;6.50;3.60;;;;;;;16.29;43.83;97744.13;5107577;27;20030;-85
2023/02/20 07:21:39;;;;;;;29.13;12.88;;;;;;;16.70;43.40;97751.56;5148483;27;20491;-84
2023/02/20 07:24:06;;;;;;;7.32;3.65;;;;;;;16.81;43.56;97754.22;5099105;27;20158;-85
2023/02/20 07:26:32;;;;;;;6.25;3.08;;;;;;;17.04;41.77;97741.47;5097792;27;20038;-87
2023/02/20 07:28:59;;;;;;;15.30;7.07;;;;;;;17.74;40.87;97753.38;5123194;27;20506;-85
2023/02/20 07:31:25;;;;;;;17.83;9.00;;;;;;;18.13;40.17;97750.81;5116781;27;20479;-86
2023/02/20 07:33:51;;;;;;;21.50;8.90;;;;;;;18.62;38.46;97744.56;5110309;27;20123;-86
2023/02/20 07:36:16;;;;;;;31.25;18.02;;;;;;;18.45;39.10;97732.53;5105768;28;20387;-86
2023/02/20 07:38:43;;;;;;;4.88;2.92;;;;;;;18.40;38.58;97727.53;5141242;27;20050;-85
2023/02/20 07:41:08;;;;;;;5.53;2.63;;;;;;;18.67;37.71;97729.59;5107331;28;20027;-85
2023/02/20 07:43:34;;;;;;;4.30;2.30;;;;;;;18.98;37.85;97743.06;5099436;28;20107;-85
2023/02/20 07:46:00;;;;;;;27.20;14.05;;;;;;;19.70;36.90;97743.44;5097111;28;20027;-87
2023/02/20 07:48:25;;;;;;;11.60;6.18;;;;;;;19.42;36.64;97718.06;5098859;28;20022;-85
2023/02/20 07:50:51;;;;;;;6.72;3.80;;;;;;;19.91;35.65;97719.63;5132388;28;20482;-85
2023/02/20 07:53:18;;;;;;;5.43;2.90;;;;;;;19.95;34.86;97702.91;5107100;28;20015;-86
2023/02/20 07:55:44;;;;;;;14.20;3.55;;;;;;;20.10;34.94;97716.00;5126464;27;20019;-85
2023/02/20 07:58:10;;;;;;;7.05;3.53;;;;;;;19.22;35.86;97698.22;5113232;28;20090;-87
2023/02/20 08:00:35;;;;;;;4.80;2.92;;;;;;;19.05;36.07;97689.94;5115781;28;20027;-86
2023/02/20 08:03:01;;;;;;;12.82;2.40;;;;;;;18.81;36.46;97696.69;5124262;28;20023;-85
2023/02/20 08:05:26;;;;;;;7.88;3.00;;;;;;;18.56;37.64;97701.78;5130081;28;20030;-85
2023/02/20 08:07:52;;;;;;;5.82;2.47;;;;;;;18.62;36.73;97704.78;5103786;28;20027;-86
2023/02/20 08:10:22;;;;;;;3.70;2.75;;;;;;;17.51;38.92;97702.19;5112251;28;20035;-85
2023/02/20 08:12:48;;;;;;;5.07;1.90;;;;;;;17.70;37.07;97702.34;5104020;28;20015;-84
2023/02/20 08:15:13;;;;;;;11.00;3.58;;;;;;;17.75;37.64;97719.03;5106931;27;20022;-85
2023/02/20 08:17:40;;;;;;;6.00;3.40;;;;;;;18.79;37.28;97742.06;5116387;27;20095;-84
2023/02/20 08:20:06;;;;;;;7.50;3.53;;;;;;;20.05;34.46;97754.47;5144251;27;20585;-84
2023/02/20 08:22:33;;;;;;;5.38;3.28;;;;;;;20.84;31.73;97733.91;5118203;27;20124;-84
2023/02/20 08:24:58;;;;;;;7.47;3.63;;;;;;;20.77;29.73;97702.88;5136886;27;20081;-84
2023/02/20 08:27:24;;;;;;;3.00;2.00;;;;;;;20.63;28.39;97684.41;5136281;27;20460;-84
2023/02/20 08:29:50;;;;;;;2.78;1.98;;;;;;;20.05;28.50;97645.84;5117203;27;20019;-85
2023/02/20 08:32:15;;;;;;;5.80;1.40;;;;;;;20.05;27.54;97653.13;5127062;27;20220;-84
2023/02/20 08:34:41;;;;;;;4.20;2.17;;;;;;;21.42;26.08;97674.41;5119766;27;20446;-84
2023/02/20 08:37:08;;;;;;;4.60;1.58;;;;;;;20.94;24.81;97633.19;5101816;27;20027;-84
2023/02/20 08:39:35;;;;;;;6.45;2.03;;;;;;;20.81;24.36;97605.53;5102285;27;20426;-84
2023/02/20 08:42:01;;;;;;;2.00;1.30;;;;;;;20.40;24.71;97602.44;5109053;27;20038;-84
2023/02/20 08:44:26;;;;;;;2.97;1.52;;;;;;;20.43;25.17;97617.56;5120583;27;20031;-85
2023/02/20 08:46:52;;;;;;;5.45;1.90;;;;;;;21.17;22.84;97598.19;5151097;27;20027;-84
2023/02/20 08:49:18;;;;;;;2.15;1.13;;;;;;;19.32;21.72;97516.44;5117640;27;20493;-83
2023/02/20 08:51:47;;;;;;;2.83;1.83;;;;;;;19.85;20.84;97528.31;5120815;27;20096;-84
2023/02/20 08:54:19;;;;;;;5.05;2.22;;;;;;;20.28;20.89;97551.19;5138604;27;20022;-83
2023/02/20 08:56:44;;;;;;;3.45;1.25;;;;;;;20.82;21.21;97564.59;5117867;27;20023;-85
2023/02/20 08:59:10;;;;;;;1.75;1.50;;;;;;;20.69;21.05;97550.56;5125851;27;20034;-84
2023/02/20 09:01:35;;;;;;;26.70;2.75;;;;;;;20.73;18.93;97522.06;5150961;27;20387;-86
2023/02/20 09:04:01;;;;;;;8.60;1.27;;;;;;;20.54;19.43;97530.38;5109310;27;20029;-85
2023/02/20 09:06:27;;;;;;;1.83;1.10;;;;;;;20.51;18.54;97514.41;5121849;27;20056;-84
2023/02/20 09:08:54;;;;;;;6.88;1.40;;;;;;;21.47;18.59;97565.88;5112683;27;20563;-85
2023/02/20 09:11:20;;;;;;;10.20;1.60;;;;;;;20.54;18.46;97523.09;5127262;27;20410;-84
2023/02/20 09:13:47;;;;;;;5.65;1.20;;;;;;;19.76;18.53;97485.81;5101879;27;20023;-83
2023/02/20 09:16:14;;;;;;;1.88;1.10;;;;;;;21.17;18.39;97551.94;5145599;27;20063;-83
2023/02/20 09:18:39;;;;;;;23.85;2.20;;;;;;;20.40;19.58;97536.34;5099712;27;20092;-82
2023/02/20 09:21:10;;;;;;;2.17;1.17;;;;;;;20.66;18.33;97517.41;5099197;27;20434;-83
2023/02/20 09:23:36;;;;;;;5.35;1.15;;;;;;;19.76;18.48;97465.94;5098594;27;20110;-82
2023/02/20 09:26:01;;;;;;;27.48;1.90;;;;;;;20.70;19.28;97541.41;5103392;27;20059;-85
2023/02/20 09:28:27;;;;;;;2.83;1.27;;;;;;;21.51;18.86;97567.28;5109854;27;20054;-84
2023/02/20 09:30:54;;;;;;;3.03;1.08;;;;;;;21.44;18.03;97530.00;5150929;27;20380;-84
2023/02/20 09:33:20;;;;;;;3.95;1.10;;;;;;;21.89;17.82;97555.06;5107535;27;20045;-82
2023/02/20 09:35:48;;;;;;;3.25;2.10;;;;;;;22.44;17.59;97559.94;5103227;27;20023;-84
2023/02/20 09:38:14;;;;;;;2.70;1.35;;;;;;;22.00;17.81;97532.94;5137568;27;20027;-85
2023/02/20 09:40:40;;;;;;;3.85;1.30;;;;;;;21.66;18.76;97539.47;5117721;27;20520;-84
2023/02/20 09:43:31;;;;;;;7.32;1.60;;;;;;;20.73;18.30;97511.19;5133179;27;20576;-85
2023/02/20 09:46:10;;;;;;;12.30;2.20;;;;;;;19.21;19.33;97432.56;5133278;27;20027;-84
2023/02/20 09:48:47;;;;;;;18.05;2.45;;;;;;;19.86;20.33;97500.19;5150122;27;20031;-84
2023/02/20 09:51:15;;;;;;;13.60;1.40;;;;;;;20.14;20.07;97517.25;5150052;27;20051;-85
2023/02/20 09:54:16;;;;;;;11.65;1.80;;;;;;;19.03;20.64;97464.19;5114831;27;20110;-85
2023/02/20 09:56:49;;;;;;;9.43;1.55;;;;;;;20.31;19.61;97534.59;5100161;27;20083;-84
2023/02/20 09:59:18;;;;;;;4.53;1.45;;;;;;;20.42;19.64;97524.34;5124439;27;20034;-87
2023/02/20 10:02:16;;;;;;;7.20;1.58;;;;;;;20.87;20.02;97551.38;5116622;27;20047;-86
2023/02/20 10:04:45;;;;;;;12.48;1.50;;;;;;;21.21;19.29;97543.31;5124056;27;20035;-85
2023/02/20 10:07:24;;;;;;;4.38;1.60;;;;;;;20.03;20.16;97488.44;5119831;27;20046;-85
2023/02/20 10:09:50;;;;;;;3.13;1.38;;;;;;;19.37;21.18;97476.16;5091737;27;20033;-84
2023/02/20 10:12:35;;;;;;;4.18;1.10;;;;;;;20.35;19.67;97534.13;5120600;27;20354;-85
2023/02/20 10:15:03;;;;;;;1.75;1.15;;;;;;;21.03;19.89;97548.78;5149659;27;20440;-85
2023/02/20 10:17:35;;;;;;;9.77;1.35;;;;;;;21.01;19.87;97548.06;5131989;27;20023;-85
2023/02/20 10:20:12;;;;;;;6.22;1.13;;;;;;;19.73;20.45;97483.41;5132535;27;20043;-85
2023/02/20 10:22:59;;;;;;;5.28;1.13;;;;;;;20.11;19.84;97492.28;5115157;27;20037;-85
2023/02/20 10:25:29;;;;;;;3.35;1.00;;;;;;;20.27;19.66;97493.28;5098704;27;20027;-84
2023/02/20 10:27:58;;;;;;;1.38;1.00;;;;;;;21.92;18.98;97565.63;5091785;27;20051;-84
2023/02/20 10:30:33;;;;;;;5.00;1.20;;;;;;;22.67;18.42;97571.94;5115756;27;20035;-85
2023/02/20 10:33:24;;;;;;;2.13;1.30;;;;;;;23.25;18.06;97592.72;5098111;27;20016;-84
2023/02/20 10:36:01;;;;;;;2.92;0.73;;;;;;;24.08;17.01;97589.41;5101256;27;20038;-85
2023/02/20 10:38:33;;;;;;;7.53;1.83;;;;;;;23.76;17.07;97570.41;5114328;27;20031;-85
2023/02/20 10:40:58;;;;;;;;;;;;;;;23.74;17.65;97564.28;5131956;27;20071;-85
2023/02/20 10:44:09;;;;;;;3.15;1.40;;;;;;;24.01;17.51;97566.56;5126842;27;19915;-85
2023/02/20 10:47:04;;;;;;;4.22;1.73;;;;;;;23.18;18.06;97516.97;5129704;27;20414;-81
2023/02/20 10:49:34;;;;;;;5.40;3.22;;;;;;;20.93;18.22;97447.38;5132616;27;20019;-86
2023/02/20 10:52:01;;;;;;;3.90;1.80;;;;;;;21.29;18.60;97467.13;5117613;27;20043;-84
2023/02/20 10:54:35;;;;;;;10.02;1.75;;;;;;;21.66;18.30;97488.53;5098867;27;20019;-84
2023/02/20 10:57:12;;;;;;;4.63;1.50;;;;;;;21.60;18.30;97479.19;5117104;27;20029;-82
2023/02/20 10:59:46;;;;;;;1.70;0.93;;;;;;;22.05;18.32;97497.91;5149084;27;20250;-83
2023/02/20 11:02:17;;;;;;;20.83;8.82;;;;;;;21.91;18.29;97490.34;5146927;27;20458;-84
2023/02/20 11:04:49;;;;;;;4.60;0.85;;;;;;;22.59;17.67;97515.47;5131418;27;20027;-83
2023/02/20 11:07:17;;;;;;;;;;;;;;;23.83;17.59;97570.56;5131557;27;20049;-84
2023/02/20 11:09:42;;;;;;;1.63;0.80;;;;;;;23.69;17.38;97551.13;5112848;27;19921;-81
2023/02/20 11:12:21;;;;;;;1.45;0.70;;;;;;;25.31;16.41;97600.22;5105834;27;20469;-80
2023/02/20 11:14:48;;;;;;;1.48;0.77;;;;;;;24.19;17.48;97556.22;5137633;27;20641;-82
2023/02/20 11:17:25;;;;;;;7.43;1.20;;;;;;;22.14;17.70;97450.56;5113053;27;20398;-82
2023/02/20 11:19:52;;;;;;;10.43;2.05;;;;;;;23.38;17.88;97532.97;5111817;27;20534;-83
2023/02/20 11:22:43;;;;;;;2.17;1.20;;;;;;;23.93;17.54;97561.13;5097765;27;20390;-83
2023/02/20 11:25:15;;;;;;;4.47;1.20;;;;;;;24.17;17.13;97547.38;5100553;27;20413;-78
2023/02/20 11:27:41;;;;;;;3.42;1.42;;;;;;;23.23;17.16;97498.19;5110995;27;20047;-80
2023/02/20 11:30:29;;;;;;;1.88;1.45;;;;;;;23.50;17.63;97542.53;5099938;27;20425;-82
2023/02/20 11:33:00;;;;;;;3.13;1.40;;;;;;;25.27;16.97;97618.03;5120894;27;20030;-81
2023/02/20 11:35:28;;;;;;;1.33;0.98;;;;;;;23.15;17.58;97498.22;5128870;27;20498;-81
2023/02/20 11:38:22;;;;;;;6.72;2.45;;;;;;;22.07;18.51;97465.88;5095112;28;20507;-81
2023/02/20 11:41:02;;;;;;;2.00;1.40;;;;;;;22.79;18.88;97501.53;5125925;28;20033;-82
2023/02/20 11:43:33;;;;;;;3.58;2.10;;;;;;;24.22;18.79;97564.06;5128069;27;20555;-82
2023/02/20 11:46:24;;;;;;;7.93;1.70;;;;;;;24.35;18.74;97570.84;5142748;27;20406;-83
2023/02/20 11:48:53;;;;;;;3.22;1.80;;;;;;;25.48;17.83;97602.78;5119241;28;20277;-83
2023/02/20 11:51:37;;;;;;;4.20;1.63;;;;;;;24.87;17.94;97555.44;5133018;27;20039;-82